Terminal Aerodrome Forecast
Issued by NWS

Current Version | Previous Version | Graphics & Text | Print | Product List | Glossary On
Versions: 1 2 3 4 5 6 7 8 9 10 11 12 13 14 15 16 17 18 19 20 21 22 23 24 25 26 27 28 29 30 31 32 33 34 35 36 37 38 39 40 41
000
FTUS41 KRNK 240358 AAA
TAFLWB
TAF AMD
KLWB 240358Z 2404/2424 VRB03KT 3SM -RA BR SCT005 OVC018
     FM240700 VRB03KT 1SM -FZDZ BR OVC005
     FM241400 30008G18KT 2SM -SN OVC012
     FM241800 29009KT P6SM -SN BKN015=

USA.gov is the U.S. government's official web portal to all federal, state and local government web resources and services.